KENL/ENL METAR and TAF weather

Enter ICAO airport designator
Station Type Date Time Source
KENL METAR 2019/12/13 16:55 UTC NOAA

KENL 131655Z AUTO 17007KT 10SM SCT090 07/03 A2995 RMK AO2 T00650033


Station Type Date Time Source
KENL Decoded METAR 2019/12/13 16:55 UTC NOAA

Centralia, Centralia Municipal Airport, IL, United States (KENL) 38-30-53N 089-05-32W
Dec 13, 2019 - 11:55 AM EST / 2019.12.13 1655 UTC
Wind: from the S (170 degrees) at 8 MPH (7 KT):0
Visibility: 10 mile(s):0
Sky conditions: partly cloudy
Temperature: 43.7 F (6.5 C)
Dew Point: 37.9 F (3.3 C)
Relative Humidity: 79%
Pressure (altimeter): 29.95 in. Hg (1014 hPa)
ob: KENL 131655Z AUTO 17007KT 10SM SCT090 07/03 A2995 RMK AO2 T00650033
cycle: 17

Station Type Date Time Source
KENL TAF UTC NOAA

Error!

Example: see airport list